Arun — FGD9919 — position and weather

sailwx.info

Track history (hours):
 
Tides and Currents Weather Stations Pressure Air Temp Water Temp Dewpoint Dewpoint Depression Visibility Wind Speed Wind Dir Waves Ship Positions

Arun

Last reported at 2018-Jun-18 15:23 UTC. Time now 2018-Jun-19 04:31 UTC.
Position N 48°23' W 004°30'.

Length 35 m; draft 1.7 m.

Type: Passenger vessel. MMSI: 227612860.

Date/timePositionNaut miles runAvg speedWind from/ knotsBaromVisibWave heightAir tempDewpointWater temp
2018-Jun-18 15:23N 48°23' W 004°30'411.6
2018-Jun-18 15:00N 48°19' W 004°27'0 0.6
2018-Jun-18 14:30N 48°19' W 004°27'4 0.5
2018-Jun-18 06:24N 48°23' W 004°30'514.0
2018-Jun-18 06:00N 48°18' W 004°25'2 5.0
2018-Jun-18 05:30N 48°20' W 004°28'3 6.1
2018-Jun-18 05:00N 48°23' W 004°30'  
2018-Jun-15 14:30N 48°23' W 004°30'611.6
2018-Jun-15 14:00N 48°18' W 004°25'4 7.2
2018-Jun-15 13:30N 48°21' W 004°29'2 4.1
2018-Jun-15 13:00N 48°22' W 004°31'1 1.6
2018-Jun-15 12:30N 48°23' W 004°30'0 0.0
2018-Jun-15 06:22N 48°23' W 004°30'513.8
2018-Jun-15 06:01N 48°18' W 004°26'2 4.1
2018-Jun-15 05:30N 48°20' W 004°28'3 5.6
2018-Jun-15 04:58N 48°23' W 004°30'0 0.0
2018-Jun-14 15:04N 48°23' W 004°30'0 0.6
2018-Jun-14 15:00N 48°23' W 004°30'5 9.6
2018-Jun-14 14:28N 48°18' W 004°31'4 9.1
2018-Jun-14 14:00N 48°22' W 004°29'1 2.1
2018-Jun-14 13:28N 48°23' W 004°30'0 0.0
2018-Jun-14 12:58N 48°23' W 004°30'0 0.0
2018-Jun-14 12:25N 48°23' W 004°30'0 0.0
2018-Jun-14 11:58N 48°23' W 004°30'3 5.5
2018-Jun-14 11:31N 48°20' W 004°29'3 6.0
2018-Jun-14 11:00N 48°18' W 004°27'2 4.2
2018-Jun-14 10:30N 48°20' W 004°28'3 0.8
2018-Jun-14 06:21N 48°23' W 004°30'411.3
2018-Jun-14 06:00N 48°19' W 004°29'1 1.6
2018-Jun-14 05:30N 48°20' W 004°29'3 5.6
2018-Jun-14 04:58N 48°23' W 004°30'0 0.0
2018-Jun-13 15:03N 48°23' W 004°30'0 0.0
2018-Jun-13 15:00N 48°23' W 004°30'5 9.7
2018-Jun-13 14:28N 48°18' W 004°31'4 8.9
2018-Jun-13 14:00N 48°22' W 004°29'1 0.6
2018-Jun-13 11:49N 48°23' W 004°30'310.2
2018-Jun-13 11:30N 48°20' W 004°29'3 5.9
2018-Jun-13 11:00N 48°18' W 004°26'3 6.1
2018-Jun-13 10:31N 48°20' W 004°28'3 0.7
2018-Jun-13 06:22N 48°23' W 004°30'410.8
2018-Jun-13 06:00N 48°19' W 004°29'1 2.1
2018-Jun-13 05:30N 48°20' W 004°29'3 0.2
2018-Jun-12 15:06N 48°23' W 004°30'0 0.4
2018-Jun-12 15:00N 48°23' W 004°30'5 9.5
2018-Jun-12 14:28N 48°18' W 004°31'4 8.2
2018-Jun-12 14:00N 48°21' W 004°29'2 0.7
2018-Jun-12 11:42N 48°23' W 004°30'210.2
2018-Jun-12 11:30N 48°21' W 004°29'3 6.3
2018-Jun-12 11:00N 48°18' W 004°27'2 3.9
2018-Jun-12 10:30N 48°20' W 004°28'3 6.3
2018-Jun-12 09:59N 48°23' W 004°30'0 0.0
2018-Jun-12 09:26N 48°23' W 004°30'0 0.0
2018-Jun-12 08:59N 48°23' W 004°30'0 0.0
2018-Jun-12 08:26N 48°23' W 004°30'0 0.0
2018-Jun-12 07:59N 48°23' W 004°30'0 0.0
2018-Jun-12 07:29N 48°23' W 004°30'0 0.0
2018-Jun-12 06:59N 48°23' W 004°30'0 0.0
2018-Jun-12 06:26N 48°23' W 004°30'4 8.4
2018-Jun-12 06:01N 48°19' W 004°29'0 1.0
2018-Jun-12 05:30N 48°20' W 004°29'3 5.7
2018-Jun-12 04:58N 48°23' W 004°30'0 0.0
2018-Jun-11 15:06N 48°23' W 004°30'0 0.4
2018-Jun-11 15:00N 48°23' W 004°30'510.2
2018-Jun-11 14:30N 48°18' W 004°31'4 7.8
2018-Jun-11 14:00N 48°21' W 004°29'1 0.7
2018-Jun-11 11:48N 48°23' W 004°30'310.3
2018-Jun-11 11:30N 48°20' W 004°29'3 5.2
2018-Jun-11 11:00N 48°18' W 004°27'2 4.6
2018-Jun-11 10:30N 48°20' W 004°28'3 6.1
2018-Jun-11 09:59N 48°23' W 004°30'0 0.0
2018-Jun-11 06:21N 48°23' W 004°30'411.2
2018-Jun-11 06:01N 48°19' W 004°29'1 2.2
2018-Jun-11 05:30N 48°20' W 004°29'3 5.3
2018-Jun-11 04:59N 48°23' W 004°30'  
Track history (hours):
 
Tides and Currents Weather Stations Pressure Air Temp Water Temp Dewpoint Dewpoint Depression Visibility Wind Speed Wind Dir Waves Ship Positions

Arun

Last reported at 2018-Jun-18 15:23 UTC. Time now 2018-Jun-19 04:31 UTC.
Position N 48°23' W 004°30'.

Length 35 m; draft 1.7 m.

Type: Passenger vessel. MMSI: 227612860.

Date/timePositionNaut miles runAvg speedWind from/ knotsBaromVisibWave heightAir tempDewpointWater temp
2018-Jun-18 15:23N 48°23' W 004°30'411.6
2018-Jun-18 15:00N 48°19' W 004°27'0 0.6
2018-Jun-18 14:30N 48°19' W 004°27'4 0.5
2018-Jun-18 06:24N 48°23' W 004°30'514.0
2018-Jun-18 06:00N 48°18' W 004°25'2 5.0
2018-Jun-18 05:30N 48°20' W 004°28'3 6.1
2018-Jun-18 05:00N 48°23' W 004°30'  
2018-Jun-15 14:30N 48°23' W 004°30'611.6
2018-Jun-15 14:00N 48°18' W 004°25'4 7.2
2018-Jun-15 13:30N 48°21' W 004°29'2 4.1
2018-Jun-15 13:00N 48°22' W 004°31'1 1.6
2018-Jun-15 12:30N 48°23' W 004°30'0 0.0
2018-Jun-15 06:22N 48°23' W 004°30'513.8
2018-Jun-15 06:01N 48°18' W 004°26'2 4.1
2018-Jun-15 05:30N 48°20' W 004°28'3 5.6
2018-Jun-15 04:58N 48°23' W 004°30'0 0.0
2018-Jun-14 15:04N 48°23' W 004°30'0 0.6
2018-Jun-14 15:00N 48°23' W 004°30'5 9.6
2018-Jun-14 14:28N 48°18' W 004°31'4 9.1
2018-Jun-14 14:00N 48°22' W 004°29'1 2.1
2018-Jun-14 13:28N 48°23' W 004°30'0 0.0
2018-Jun-14 12:58N 48°23' W 004°30'0 0.0
2018-Jun-14 12:25N 48°23' W 004°30'0 0.0
2018-Jun-14 11:58N 48°23' W 004°30'3 5.5
2018-Jun-14 11:31N 48°20' W 004°29'3 6.0
2018-Jun-14 11:00N 48°18' W 004°27'2 4.2
2018-Jun-14 10:30N 48°20' W 004°28'3 0.8
2018-Jun-14 06:21N 48°23' W 004°30'411.3
2018-Jun-14 06:00N 48°19' W 004°29'1 1.6
2018-Jun-14 05:30N 48°20' W 004°29'3 5.6
2018-Jun-14 04:58N 48°23' W 004°30'0 0.0
2018-Jun-13 15:03N 48°23' W 004°30'0 0.0
2018-Jun-13 15:00N 48°23' W 004°30'5 9.7
2018-Jun-13 14:28N 48°18' W 004°31'4 8.9
2018-Jun-13 14:00N 48°22' W 004°29'1 0.6
2018-Jun-13 11:49N 48°23' W 004°30'310.2
2018-Jun-13 11:30N 48°20' W 004°29'3 5.9
2018-Jun-13 11:00N 48°18' W 004°26'3 6.1
2018-Jun-13 10:31N 48°20' W 004°28'3 0.7
2018-Jun-13 06:22N 48°23' W 004°30'410.8
2018-Jun-13 06:00N 48°19' W 004°29'1 2.1
2018-Jun-13 05:30N 48°20' W 004°29'3 0.2
2018-Jun-12 15:06N 48°23' W 004°30'0 0.4
2018-Jun-12 15:00N 48°23' W 004°30'5 9.5
2018-Jun-12 14:28N 48°18' W 004°31'4 8.2
2018-Jun-12 14:00N 48°21' W 004°29'2 0.7
2018-Jun-12 11:42N 48°23' W 004°30'210.2
2018-Jun-12 11:30N 48°21' W 004°29'3 6.3
2018-Jun-12 11:00N 48°18' W 004°27'2 3.9
2018-Jun-12 10:30N 48°20' W 004°28'3 6.3
2018-Jun-12 09:59N 48°23' W 004°30'0 0.0
2018-Jun-12 09:26N 48°23' W 004°30'0 0.0
2018-Jun-12 08:59N 48°23' W 004°30'0 0.0
2018-Jun-12 08:26N 48°23' W 004°30'0 0.0
2018-Jun-12 07:59N 48°23' W 004°30'0 0.0
2018-Jun-12 07:29N 48°23' W 004°30'0 0.0
2018-Jun-12 06:59N 48°23' W 004°30'0 0.0
2018-Jun-12 06:26N 48°23' W 004°30'4 8.4
2018-Jun-12 06:01N 48°19' W 004°29'0 1.0
2018-Jun-12 05:30N 48°20' W 004°29'3 5.7
2018-Jun-12 04:58N 48°23' W 004°30'0 0.0
2018-Jun-11 15:06N 48°23' W 004°30'0 0.4
2018-Jun-11 15:00N 48°23' W 004°30'510.2
2018-Jun-11 14:30N 48°18' W 004°31'4 7.8
2018-Jun-11 14:00N 48°21' W 004°29'1 0.7
2018-Jun-11 11:48N 48°23' W 004°30'310.3
2018-Jun-11 11:30N 48°20' W 004°29'3 5.2
2018-Jun-11 11:00N 48°18' W 004°27'2 4.6
2018-Jun-11 10:30N 48°20' W 004°28'3 6.1
2018-Jun-11 09:59N 48°23' W 004°30'0 0.0
2018-Jun-11 06:21N 48°23' W 004°30'411.2
2018-Jun-11 06:01N 48°19' W 004°29'1 2.2
2018-Jun-11 05:30N 48°20' W 004°29'3 5.3
2018-Jun-11 04:59N 48°23' W 004°30'  

Dump ship's entire track history